createdAt,value
2023-05-16T00:00:27.093Z,44.48
2023-05-16T00:01:26.848Z,44.33
2023-05-16T00:02:26.913Z,44.25
2023-05-16T00:03:26.916Z,44.13
2023-05-16T00:04:26.874Z,44.02
2023-05-16T00:05:26.834Z,43.92
2023-05-16T00:06:26.820Z,43.84
2023-05-16T00:07:26.811Z,43.72
2023-05-16T00:08:26.800Z,43.61
2023-05-16T00:09:26.808Z,43.53
2023-05-16T00:10:26.946Z,43.41
2023-05-16T00:11:26.788Z,43.38
2023-05-16T00:12:26.780Z,43.26
2023-05-16T00:13:26.799Z,43.19
2023-05-16T00:14:26.769Z,43.11
2023-05-16T00:15:26.830Z,43.06
2023-05-16T00:16:26.885Z,43.02
2023-05-16T00:17:26.906Z,42.93
2023-05-16T00:18:26.934Z,42.92
2023-05-16T00:19:26.983Z,42.84
2023-05-16T00:20:27.369Z,42.79
2023-05-16T00:21:27.073Z,42.77
2023-05-16T00:22:27.096Z,42.72
2023-05-16T00:23:27.135Z,42.66
2023-05-16T00:24:27.178Z,42.63
2023-05-16T00:25:27.225Z,42.61
2023-05-16T00:26:27.262Z,42.58
2023-05-16T00:27:27.297Z,42.56
2023-05-16T00:28:27.343Z,42.55
2023-05-16T00:29:27.398Z,42.52
2023-05-16T00:30:27.629Z,42.48
2023-05-16T00:31:27.482Z,42.49
2023-05-16T00:32:27.510Z,42.46
2023-05-16T00:33:27.517Z,42.43
2023-05-16T00:34:27.612Z,42.44
2023-05-16T00:35:27.593Z,42.42
2023-05-16T00:36:27.635Z,42.38
2023-05-16T00:37:27.666Z,42.41
2023-05-16T00:38:27.713Z,42.39
2023-05-16T00:39:27.747Z,42.33
2023-05-16T00:40:27.929Z,42.32
2023-05-16T00:41:27.881Z,42.32
2023-05-16T00:42:27.865Z,42.31
2023-05-16T00:43:27.914Z,42.31
2023-05-16T00:44:27.941Z,42.27
2023-05-16T00:45:28.017Z,42.28
2023-05-16T00:46:28.094Z,42.27
2023-05-16T00:47:28.100Z,42.27
2023-05-16T00:48:28.098Z,42.30
2023-05-16T00:49:28.129Z,42.26
2023-05-16T00:50:28.385Z,42.24
2023-05-16T00:51:28.211Z,42.26
2023-05-16T00:52:28.247Z,42.25
2023-05-16T00:53:28.288Z,42.23
2023-05-16T00:54:28.334Z,42.22
2023-05-16T00:55:28.373Z,42.23
2023-05-16T00:56:28.397Z,42.23
2023-05-16T00:57:28.440Z,42.22
2023-05-16T00:58:28.482Z,42.24
2023-05-16T00:59:28.513Z,42.19
2023-05-16T01:00:28.674Z,42.18
2023-05-16T01:01:28.721Z,42.19
2023-05-16T01:02:28.717Z,42.17
2023-05-16T01:03:28.777Z,42.18
2023-05-16T01:04:28.698Z,42.18
2023-05-16T01:05:28.962Z,42.14
2023-05-16T01:06:28.784Z,42.15
2023-05-16T01:07:28.830Z,42.15
2023-05-16T01:08:28.856Z,42.15
2023-05-16T01:09:28.892Z,42.15
2023-05-16T01:10:28.983Z,42.15
2023-05-16T01:11:28.972Z,42.14
2023-05-16T01:12:28.999Z,42.13
2023-05-16T01:13:29.053Z,42.11
2023-05-16T01:14:29.078Z,42.11
2023-05-16T01:15:29.454Z,42.11
2023-05-16T01:16:29.286Z,42.12
2023-05-16T01:17:29.286Z,42.10
2023-05-16T01:18:29.268Z,42.10
2023-05-16T01:19:29.507Z,42.10
2023-05-16T01:20:29.292Z,42.10
2023-05-16T01:21:29.324Z,42.09
2023-05-16T01:22:29.368Z,42.08
2023-05-16T01:23:29.396Z,42.08
2023-05-16T01:24:29.433Z,42.09
2023-05-16T01:25:29.555Z,42.09
2023-05-16T01:26:29.510Z,42.08
2023-05-16T01:27:29.557Z,42.11
2023-05-16T01:28:29.592Z,42.08
2023-05-16T01:29:29.611Z,42.07
2023-05-16T01:30:29.649Z,42.06
2023-05-16T01:31:29.693Z,42.08
2023-05-16T01:32:29.740Z,42.08
2023-05-16T01:33:29.846Z,42.06
2023-05-16T01:34:29.795Z,42.04
2023-05-16T01:35:29.832Z,42.07
2023-05-16T01:36:29.863Z,42.06
2023-05-16T01:37:29.904Z,42.02
2023-05-16T01:38:29.949Z,42.04
2023-05-16T01:39:29.988Z,42.05
2023-05-16T01:40:30.027Z,42.02
2023-05-16T01:41:30.066Z,42.03
2023-05-16T01:42:30.106Z,42.03
2023-05-16T01:43:30.603Z,42.03
2023-05-16T01:44:30.182Z,42.03
2023-05-16T01:45:30.339Z,42.02
2023-05-16T01:46:30.296Z,42.00
2023-05-16T01:47:30.298Z,42.01
2023-05-16T01:48:30.343Z,42.00
2023-05-16T01:49:30.390Z,42.00
2023-05-16T01:50:30.406Z,42.00
2023-05-16T01:51:30.441Z,42.00
2023-05-16T01:52:30.478Z,41.98
2023-05-16T01:53:30.525Z,41.95
2023-05-16T01:54:30.552Z,41.96
2023-05-16T01:55:30.608Z,41.96
2023-05-16T01:56:30.633Z,41.96
2023-05-16T01:57:30.663Z,41.98
2023-05-16T01:58:30.710Z,41.95
2023-05-16T01:59:30.742Z,41.97
2023-05-16T02:00:30.786Z,41.96
2023-05-16T02:01:30.881Z,41.94
2023-05-16T02:02:30.888Z,41.98
2023-05-16T02:03:30.974Z,41.95
2023-05-16T02:04:30.952Z,41.98
2023-05-16T02:05:31.073Z,41.95
2023-05-16T02:06:31.029Z,41.93
2023-05-16T02:07:31.069Z,41.94
2023-05-16T02:08:31.113Z,41.94
2023-05-16T02:09:31.153Z,41.94
2023-05-16T02:10:31.185Z,41.94
2023-05-16T02:11:31.221Z,41.94
2023-05-16T02:12:31.256Z,41.94
2023-05-16T02:13:31.299Z,41.94
2023-05-16T02:14:31.339Z,41.96
2023-05-16T02:15:31.375Z,41.91
2023-05-16T02:16:31.470Z,41.92
2023-05-16T02:17:31.486Z,41.92
2023-05-16T02:18:31.549Z,41.92
2023-05-16T02:19:31.559Z,41.90
2023-05-16T02:20:31.596Z,41.90
2023-05-16T02:21:31.666Z,41.90
2023-05-16T02:22:31.681Z,41.91
2023-05-16T02:23:31.732Z,41.88
2023-05-16T02:24:31.775Z,41.90
2023-05-16T02:25:31.809Z,41.90
2023-05-16T02:26:31.847Z,41.89
2023-05-16T02:27:31.889Z,41.89
2023-05-16T02:28:31.930Z,41.89
2023-05-16T02:29:31.994Z,41.86
2023-05-16T02:30:32.064Z,41.85
2023-05-16T02:31:32.428Z,41.85
2023-05-16T02:32:32.163Z,41.86
2023-05-16T02:33:32.137Z,41.86
2023-05-16T02:34:32.177Z,41.86
2023-05-16T02:35:32.231Z,41.85
2023-05-16T02:36:32.269Z,41.85
2023-05-16T02:37:32.329Z,41.84
2023-05-16T02:38:32.353Z,41.84
2023-05-16T02:39:32.382Z,41.85
2023-05-16T02:40:32.429Z,41.83
2023-05-16T02:41:32.457Z,41.82
2023-05-16T02:42:32.521Z,41.79
2023-05-16T02:43:32.551Z,41.81
2023-05-16T02:44:32.634Z,41.81
2023-05-16T02:45:32.671Z,41.84
2023-05-16T02:46:32.746Z,41.83
2023-05-16T02:47:32.796Z,41.81
2023-05-16T02:48:32.753Z,41.81
2023-05-16T02:49:32.795Z,41.81
2023-05-16T02:50:32.844Z,41.81
2023-05-16T02:51:32.911Z,41.82
2023-05-16T02:52:32.911Z,41.81
2023-05-16T02:53:32.973Z,41.81
2023-05-16T02:54:32.987Z,41.81
2023-05-16T02:55:33.028Z,41.78
2023-05-16T02:56:33.074Z,41.80
2023-05-16T02:57:33.111Z,41.79
2023-05-16T02:58:33.155Z,41.78
2023-05-16T02:59:33.199Z,41.81
2023-05-16T03:00:33.275Z,41.79
2023-05-16T03:01:33.355Z,41.79
2023-05-16T03:02:33.565Z,41.78
2023-05-16T03:03:33.521Z,41.79
2023-05-16T03:04:33.401Z,41.80
2023-05-16T03:05:33.526Z,41.78
2023-05-16T03:06:33.480Z,41.78
2023-05-16T03:07:33.526Z,41.79
2023-05-16T03:08:33.562Z,41.78
2023-05-16T03:09:33.620Z,41.78
2023-05-16T03:10:33.637Z,41.79
2023-05-16T03:11:33.681Z,41.76
2023-05-16T03:12:33.722Z,41.78
2023-05-16T03:13:33.761Z,41.79
2023-05-16T03:14:33.802Z,41.79
2023-05-16T03:15:33.860Z,41.79
2023-05-16T03:16:34.006Z,41.80
2023-05-16T03:17:33.995Z,41.81
2023-05-16T03:18:34.062Z,41.80
2023-05-16T03:19:34.055Z,41.82
2023-05-16T03:20:34.074Z,41.81
2023-05-16T03:21:34.115Z,41.81
2023-05-16T03:22:34.160Z,41.80
2023-05-16T03:23:34.200Z,41.81
2023-05-16T03:24:34.324Z,41.80
2023-05-16T03:25:34.323Z,41.78
2023-05-16T03:26:34.339Z,41.79
2023-05-16T03:27:34.377Z,41.79
2023-05-16T03:28:34.427Z,41.77
2023-05-16T03:29:34.474Z,41.79
2023-05-16T03:30:34.522Z,41.78
2023-05-16T03:31:34.652Z,41.77
2023-05-16T03:32:34.629Z,41.77
2023-05-16T03:33:34.657Z,41.78
2023-05-16T03:34:34.720Z,41.78
2023-05-16T03:35:34.760Z,41.74
2023-05-16T03:36:34.804Z,41.73
2023-05-16T03:37:34.862Z,41.74
2023-05-16T03:38:34.902Z,41.73
2023-05-16T03:39:34.942Z,41.75
2023-05-16T03:40:34.975Z,41.74
2023-05-16T03:41:35.067Z,41.72
2023-05-16T03:42:35.087Z,41.74
2023-05-16T03:43:35.129Z,41.72
2023-05-16T03:44:35.167Z,41.73
2023-05-16T03:45:35.229Z,41.73
2023-05-16T03:46:35.258Z,41.72
2023-05-16T03:47:35.377Z,41.71
2023-05-16T03:48:35.392Z,41.73
2023-05-16T03:49:35.405Z,41.73
2023-05-16T03:50:35.466Z,41.73
2023-05-16T03:51:35.517Z,41.70
2023-05-16T03:52:35.545Z,41.72
2023-05-16T03:53:35.592Z,41.72
2023-05-16T03:54:35.643Z,41.69
2023-05-16T03:55:35.697Z,41.70
2023-05-16T03:56:35.754Z,41.74
2023-05-16T03:57:35.849Z,41.73
2023-05-16T03:58:35.847Z,41.68
2023-05-16T03:59:35.887Z,41.68
2023-05-16T04:00:35.935Z,41.69
2023-05-16T04:01:35.997Z,41.69
2023-05-16T04:02:36.112Z,41.67
2023-05-16T04:03:36.137Z,41.67
2023-05-16T04:04:36.127Z,41.66
2023-05-16T04:05:36.226Z,41.70
2023-05-16T04:06:36.219Z,41.69
2023-05-16T04:07:36.267Z,41.69
2023-05-16T04:08:36.312Z,41.69
2023-05-16T04:09:36.364Z,41.67
2023-05-16T04:10:36.412Z,41.68
2023-05-16T04:11:36.465Z,41.68
2023-05-16T04:12:36.509Z,41.68
2023-05-16T04:13:36.621Z,41.68
2023-05-16T04:14:36.587Z,41.67
2023-05-16T04:15:36.634Z,41.70
2023-05-16T04:16:36.705Z,41.68
2023-05-16T04:17:36.815Z,41.70
2023-05-16T04:18:36.855Z,41.68
2023-05-16T04:19:36.816Z,41.67
2023-05-16T04:20:36.863Z,41.67
2023-05-16T04:21:36.911Z,41.67
2023-05-16T04:22:36.952Z,41.63
2023-05-16T04:23:36.995Z,41.66
2023-05-16T04:24:37.030Z,41.64
2023-05-16T04:25:37.073Z,41.64
2023-05-16T04:26:37.126Z,41.62
2023-05-16T04:27:37.173Z,41.62
2023-05-16T04:28:37.223Z,41.64
2023-05-16T04:29:37.292Z,41.65
2023-05-16T04:30:37.318Z,41.65
2023-05-16T04:31:37.412Z,41.65
2023-05-16T04:32:37.462Z,41.63
2023-05-16T04:33:37.488Z,41.62
2023-05-16T04:34:39.727Z,41.62
2023-05-16T04:35:37.505Z,41.63
2023-05-16T04:36:37.489Z,41.61
2023-05-16T04:37:37.489Z,41.63
2023-05-16T04:38:37.486Z,41.64
2023-05-16T04:39:37.494Z,41.63
2023-05-16T04:40:37.490Z,41.64
2023-05-16T04:41:37.464Z,41.62
2023-05-16T04:42:37.461Z,41.62
2023-05-16T04:43:37.443Z,41.60
2023-05-16T04:44:37.444Z,41.61
2023-05-16T04:45:37.969Z,41.61
2023-05-16T04:46:37.458Z,41.60
2023-05-16T04:47:37.451Z,41.62
2023-05-16T04:48:37.422Z,41.61
2023-05-16T04:49:37.418Z,41.61
2023-05-16T04:50:37.396Z,41.60
2023-05-16T04:51:37.388Z,41.62
2023-05-16T04:52:37.381Z,41.61
2023-05-16T04:53:37.378Z,41.62
2023-05-16T04:54:37.375Z,41.60
2023-05-16T04:55:37.368Z,41.61
2023-05-16T04:56:37.361Z,41.61
2023-05-16T04:57:37.356Z,41.60
2023-05-16T04:58:37.345Z,41.60
2023-05-16T04:59:37.351Z,41.59
2023-05-16T05:00:37.358Z,41.60
2023-05-16T05:01:37.406Z,41.60
2023-05-16T05:02:37.384Z,41.59
2023-05-16T05:03:37.382Z,41.59
2023-05-16T05:04:37.469Z,41.57
2023-05-16T05:05:37.799Z,41.56
2023-05-16T05:06:37.534Z,41.59
2023-05-16T05:07:37.551Z,41.58
2023-05-16T05:08:37.590Z,41.55
2023-05-16T05:09:37.646Z,41.57
2023-05-16T05:10:37.726Z,41.57
2023-05-16T05:11:37.722Z,41.55
2023-05-16T05:12:37.756Z,41.55
2023-05-16T05:13:37.796Z,41.54
2023-05-16T05:14:37.842Z,41.53
2023-05-16T05:15:37.878Z,41.53
2023-05-16T05:16:37.917Z,41.52
2023-05-16T05:17:38.127Z,41.49
2023-05-16T05:18:38.100Z,41.51
2023-05-16T05:19:38.262Z,41.52
2023-05-16T05:20:38.180Z,41.58
2023-05-16T05:21:38.105Z,41.76
2023-05-16T05:22:38.146Z,42.00
2023-05-16T05:23:38.177Z,41.89
2023-05-16T05:24:38.213Z,41.85
2023-05-16T05:25:38.253Z,41.79
2023-05-16T05:26:38.679Z,41.71
2023-05-16T05:27:38.311Z,41.69
2023-05-16T05:28:39.930Z,41.70
2023-05-16T05:29:39.489Z,41.69
2023-05-16T05:30:40.147Z,41.66
2023-05-16T05:31:38.558Z,41.64
2023-05-16T05:32:38.764Z,41.61
2023-05-16T05:33:38.529Z,41.63
2023-05-16T05:34:38.510Z,41.61
2023-05-16T05:35:38.706Z,41.68
2023-05-16T05:36:38.689Z,41.74
2023-05-16T05:37:38.483Z,41.76
2023-05-16T05:38:38.490Z,41.85
2023-05-16T05:39:38.491Z,41.88
2023-05-16T05:40:38.460Z,41.84
2023-05-16T05:41:38.700Z,41.85
2023-05-16T05:42:38.438Z,41.82
2023-05-16T05:43:38.442Z,41.82
2023-05-16T05:44:38.432Z,41.84
2023-05-16T05:45:38.466Z,41.85
2023-05-16T05:46:38.689Z,41.84
2023-05-16T05:47:38.435Z,41.86
2023-05-16T05:48:38.407Z,41.89
2023-05-16T05:49:38.432Z,41.84
2023-05-16T05:50:38.686Z,41.87
2023-05-16T05:51:38.393Z,41.92
2023-05-16T05:52:38.402Z,41.92
2023-05-16T05:53:38.371Z,41.93
2023-05-16T05:54:38.390Z,42.18
2023-05-16T05:55:38.694Z,42.33
2023-05-16T05:58:53.964Z,43.27
2023-05-16T05:59:41.891Z,43.11
2023-05-16T06:00:38.707Z,43.27
2023-05-16T06:01:38.341Z,43.46
2023-05-16T06:02:38.383Z,43.39
2023-05-16T06:03:38.596Z,43.44
2023-05-16T06:04:38.716Z,43.77
2023-05-16T06:05:39.259Z,43.83
2023-05-16T06:06:38.661Z,44.01
2023-05-16T06:07:41.796Z,44.16
2023-05-16T06:08:41.905Z,44.22
2023-05-16T06:09:38.630Z,44.23
2023-05-16T06:10:45.656Z,44.32
2023-05-16T06:11:38.647Z,44.41
2023-05-16T06:12:38.246Z,44.48
2023-05-16T06:13:39.098Z,44.58
2023-05-16T06:14:38.249Z,44.18
2023-05-16T06:15:38.808Z,44.20
2023-05-16T06:16:38.581Z,43.48
2023-05-16T06:17:38.626Z,43.64
2023-05-16T06:18:38.642Z,43.36
2023-05-16T06:19:38.545Z,43.48
2023-05-16T06:20:38.455Z,43.44
2023-05-16T06:21:38.204Z,43.63
2023-05-16T06:22:38.186Z,43.27
2023-05-16T06:23:38.600Z,43.24
2023-05-16T06:24:38.232Z,43.36
2023-05-16T06:25:38.613Z,43.33
2023-05-16T06:26:38.180Z,43.18
2023-05-16T06:27:38.493Z,43.08
2023-05-16T06:28:38.150Z,43.21
2023-05-16T06:29:38.571Z,43.11
2023-05-16T06:30:38.318Z,43.17
2023-05-16T06:31:38.637Z,43.32
2023-05-16T06:32:38.563Z,43.79
2023-05-16T06:33:38.140Z,44.03
2023-05-16T06:34:38.191Z,44.09
2023-05-16T06:35:38.532Z,44.36
2023-05-16T06:36:38.239Z,44.42
2023-05-16T06:37:39.625Z,44.41
2023-05-16T06:38:38.656Z,44.41
2023-05-16T06:39:38.604Z,44.41
2023-05-16T06:40:39.185Z,44.40
2023-05-16T06:41:38.675Z,44.40
2023-05-16T06:42:38.690Z,44.47
2023-05-16T06:43:38.230Z,44.58
2023-05-16T06:44:38.214Z,44.51
2023-05-16T06:45:39.614Z,44.41
2023-05-16T06:46:54.114Z,44.39
2023-05-16T06:47:41.673Z,44.35
2023-05-16T06:48:38.183Z,44.28
2023-05-16T06:49:38.214Z,44.23
2023-05-16T06:50:38.265Z,44.13
2023-05-16T06:51:41.394Z,44.09
2023-05-16T06:54:38.402Z,44.02
2023-05-16T06:55:41.319Z,43.97
2023-05-16T06:56:38.656Z,43.97
2023-05-16T06:57:41.340Z,43.94
2023-05-16T06:58:38.260Z,43.94
2023-05-16T06:59:38.475Z,43.96
2023-05-16T07:00:38.086Z,43.94
2023-05-16T07:01:38.705Z,43.93
2023-05-16T07:02:38.541Z,43.89
2023-05-16T07:03:38.165Z,43.87
2023-05-16T07:04:38.418Z,43.85
2023-05-16T07:05:38.062Z,43.83
2023-05-16T07:06:38.241Z,43.84
2023-05-16T07:07:38.042Z,43.85
2023-05-16T07:08:38.032Z,43.79
2023-05-16T07:09:38.227Z,43.81
2023-05-16T07:10:41.611Z,43.82
2023-05-16T07:11:39.027Z,43.78
2023-05-16T07:12:41.264Z,43.79
2023-05-16T07:13:38.599Z,43.77
2023-05-16T07:14:38.000Z,43.75
2023-05-16T07:15:38.728Z,43.72
2023-05-16T07:16:38.477Z,43.74
2023-05-16T07:17:38.347Z,43.72
2023-05-16T07:18:38.240Z,43.75
2023-05-16T07:19:38.589Z,43.78
2023-05-16T07:20:37.956Z,43.81
2023-05-16T07:21:37.930Z,43.79
2023-05-16T07:22:38.404Z,43.77
2023-05-16T07:23:41.378Z,43.78
2023-05-16T07:24:39.249Z,43.75
2023-05-16T07:25:38.347Z,43.76
2023-05-16T07:26:38.343Z,43.72
2023-05-16T07:27:38.659Z,43.72
2023-05-16T07:28:38.276Z,43.71
2023-05-16T07:29:38.372Z,43.70
2023-05-16T07:30:38.431Z,43.69
2023-05-16T07:31:39.043Z,43.70
2023-05-16T07:32:38.149Z,43.61
2023-05-16T07:33:37.978Z,43.63
2023-05-16T07:34:38.329Z,43.55
2023-05-16T07:35:45.942Z,43.59
2023-05-16T07:36:45.726Z,43.66
2023-05-16T07:37:45.651Z,43.62
2023-05-16T07:38:38.319Z,43.63
2023-05-16T07:39:38.420Z,43.65
2023-05-16T07:40:38.633Z,43.69
2023-05-16T07:41:39.200Z,43.69
2023-05-16T07:42:37.992Z,43.70
2023-05-16T07:43:38.297Z,43.77
2023-05-16T07:44:41.454Z,43.80
2023-05-16T07:45:38.316Z,43.82
2023-05-16T07:46:38.156Z,43.82
2023-05-16T07:47:37.957Z,43.83
2023-05-16T07:48:38.206Z,43.87
2023-05-16T07:49:37.865Z,43.90
2023-05-16T07:50:38.232Z,43.99
2023-05-16T07:51:37.847Z,44.06
2023-05-16T07:52:38.840Z,44.08
2023-05-16T07:53:37.847Z,44.16
2023-05-16T07:54:37.829Z,44.28
2023-05-16T07:55:38.228Z,44.38
2023-05-16T07:56:38.239Z,44.40
2023-05-16T07:57:37.808Z,44.51
2023-05-16T07:58:37.868Z,44.61
2023-05-16T07:59:37.867Z,44.67
2023-05-16T08:00:37.806Z,44.72
2023-05-16T08:01:38.253Z,44.75
2023-05-16T08:02:37.942Z,44.76
2023-05-16T08:03:53.485Z,44.80
2023-05-16T08:04:38.692Z,44.42
2023-05-16T08:05:37.918Z,43.97
2023-05-16T08:06:38.235Z,44.12
2023-05-16T08:07:37.825Z,43.55
2023-05-16T08:08:37.806Z,43.72
2023-05-16T08:09:37.807Z,43.25
2023-05-16T08:10:38.280Z,43.05
2023-05-16T08:11:38.235Z,43.31
2023-05-16T08:12:37.801Z,44.10
2023-05-16T08:13:37.803Z,44.22
2023-05-16T08:14:38.020Z,44.31
2023-05-16T08:15:37.873Z,44.30
2023-05-16T08:16:38.323Z,44.35
2023-05-16T08:17:38.257Z,44.46
2023-05-16T08:18:38.079Z,44.47
2023-05-16T08:19:38.120Z,44.52
2023-05-16T08:20:38.170Z,44.59
2023-05-16T08:21:38.226Z,44.63
2023-05-16T08:22:38.280Z,44.69
2023-05-16T08:23:38.744Z,44.74
2023-05-16T08:24:38.376Z,44.76
2023-05-16T08:25:46.140Z,44.84
2023-05-16T08:26:38.407Z,44.88
2023-05-16T08:27:45.836Z,44.93
2023-05-16T08:28:38.407Z,45.13
2023-05-16T08:29:38.395Z,45.14
2023-05-16T08:30:41.032Z,45.20
2023-05-16T08:31:38.445Z,45.32
2023-05-16T08:32:38.413Z,45.39
2023-05-16T08:33:46.174Z,45.41
2023-05-16T08:34:38.364Z,45.48
2023-05-16T08:35:38.746Z,45.54
2023-05-16T08:36:38.346Z,45.57
2023-05-16T08:37:38.370Z,45.65
2023-05-16T08:38:38.393Z,45.62
2023-05-16T08:39:38.320Z,45.66
2023-05-16T08:41:38.301Z,45.82
2023-05-16T08:42:38.324Z,45.84
2023-05-16T08:43:38.752Z,45.92
2023-05-16T08:44:38.281Z,46.01
2023-05-16T08:45:41.486Z,46.08
2023-05-16T08:46:46.344Z,46.12
2023-05-16T08:47:38.316Z,46.28
2023-05-16T08:48:38.761Z,46.34
2023-05-16T08:49:38.764Z,46.34
2023-05-16T08:50:38.275Z,46.44
2023-05-16T08:51:38.243Z,46.48
2023-05-16T08:52:38.236Z,46.53
2023-05-16T08:53:38.240Z,46.66
2023-05-16T08:54:38.256Z,46.73
2023-05-16T08:55:38.220Z,46.72
2023-05-16T08:56:38.215Z,46.86
2023-05-16T08:57:38.202Z,46.89
2023-05-16T08:58:38.199Z,46.92
2023-05-16T08:59:38.287Z,47.08
2023-05-16T09:00:38.278Z,47.27
2023-05-16T09:01:38.382Z,47.25
2023-05-16T09:02:38.245Z,47.30
2023-05-16T09:03:41.445Z,47.35
2023-05-16T09:04:38.156Z,47.43
2023-05-16T09:05:38.160Z,47.56
2023-05-16T09:06:38.131Z,47.62
2023-05-16T09:07:38.152Z,47.73
2023-05-16T09:08:38.123Z,47.88
2023-05-16T09:09:38.125Z,47.88
2023-05-16T09:10:39.118Z,47.89
2023-05-16T09:11:38.269Z,47.95
2023-05-16T09:12:38.108Z,48.01
2023-05-16T09:13:38.095Z,48.17
2023-05-16T09:14:38.087Z,48.33
2023-05-16T09:15:38.081Z,48.34
2023-05-16T09:16:38.328Z,48.41
2023-05-16T09:17:40.096Z,48.55
2023-05-16T09:18:38.232Z,48.41
2023-05-16T09:19:38.120Z,48.53
2023-05-16T09:20:38.044Z,48.56
2023-05-16T09:21:38.266Z,48.58
2023-05-16T09:22:38.033Z,48.57
2023-05-16T09:23:38.036Z,48.70
2023-05-16T09:24:38.030Z,48.73
2023-05-16T09:25:38.186Z,48.80
2023-05-16T09:26:39.769Z,48.96
2023-05-16T09:27:38.283Z,49.13
2023-05-16T09:28:38.290Z,49.03
2023-05-16T09:29:38.288Z,48.96
2023-05-16T09:30:38.302Z,48.90
2023-05-16T09:31:38.890Z,48.83
2023-05-16T09:32:38.384Z,48.76
2023-05-16T09:33:38.359Z,48.73
2023-05-16T09:34:41.644Z,48.68
2023-05-16T09:35:44.237Z,48.61
2023-05-16T09:36:43.761Z,48.64
2023-05-16T09:37:38.365Z,48.65
2023-05-16T09:38:39.349Z,48.63
2023-05-16T09:39:38.352Z,48.70
2023-05-16T09:40:39.270Z,48.64
2023-05-16T09:41:46.163Z,48.63
2023-05-16T09:42:38.328Z,48.66
2023-05-16T09:43:41.658Z,48.76
2023-05-16T09:44:38.325Z,48.78
2023-05-16T09:45:38.793Z,48.79
2023-05-16T09:46:38.935Z,48.73
2023-05-16T09:47:38.347Z,48.80
2023-05-16T09:48:38.295Z,48.79
2023-05-16T09:49:38.276Z,48.76
2023-05-16T09:50:38.328Z,48.70
2023-05-16T09:51:38.281Z,48.74
2023-05-16T09:52:38.283Z,48.78
2023-05-16T09:53:38.260Z,48.79
2023-05-16T09:54:38.299Z,48.77
2023-05-16T09:55:38.279Z,48.77
2023-05-16T09:56:38.237Z,48.75
2023-05-16T09:57:38.234Z,48.61
2023-05-16T09:58:38.280Z,48.63
2023-05-16T09:59:38.328Z,48.34
2023-05-16T10:00:38.217Z,47.15
2023-05-16T10:01:38.258Z,46.13
2023-05-16T10:02:38.308Z,45.58
2023-05-16T10:03:38.640Z,45.20
2023-05-16T10:04:38.786Z,44.82
2023-05-16T10:05:38.789Z,44.50
2023-05-16T10:06:38.476Z,45.72
2023-05-16T10:07:38.440Z,45.65
2023-05-16T10:08:39.453Z,45.60
2023-05-16T10:09:38.786Z,46.05
2023-05-16T10:10:38.450Z,45.91
2023-05-16T10:11:38.443Z,46.45
2023-05-16T10:12:41.653Z,46.39
2023-05-16T10:13:38.446Z,46.40
2023-05-16T10:14:38.782Z,46.30
2023-05-16T10:15:39.802Z,46.03
2023-05-16T10:16:46.220Z,45.21
2023-05-16T10:17:38.438Z,44.58
2023-05-16T10:18:38.460Z,45.03
2023-05-16T10:19:41.625Z,45.17
2023-05-16T10:20:38.393Z,44.85
2023-05-16T10:21:38.798Z,45.55
2023-05-16T10:22:38.425Z,45.77
2023-05-16T10:23:38.362Z,45.75
2023-05-16T10:24:38.462Z,45.36
2023-05-16T10:25:38.906Z,45.61
2023-05-16T10:26:38.358Z,45.00
2023-05-16T10:27:38.365Z,45.66
2023-05-16T10:28:38.327Z,45.59
2023-05-16T10:29:50.337Z,45.29
2023-05-16T10:30:38.793Z,45.38
2023-05-16T10:31:41.589Z,45.64
2023-05-16T10:32:39.471Z,45.56
2023-05-16T10:33:38.297Z,45.56
2023-05-16T10:34:38.300Z,45.67
2023-05-16T10:35:38.285Z,45.82
2023-05-16T10:36:38.270Z,45.74
2023-05-16T10:37:38.258Z,45.85
2023-05-16T10:38:38.417Z,45.82
2023-05-16T10:39:38.261Z,45.88
2023-05-16T10:40:38.244Z,45.90
2023-05-16T10:41:38.248Z,45.91
2023-05-16T10:42:38.227Z,45.95
2023-05-16T10:43:38.299Z,46.02
2023-05-16T10:44:42.770Z,46.13
2023-05-16T10:45:38.244Z,46.19
2023-05-16T10:46:38.442Z,46.27
2023-05-16T10:47:38.222Z,46.25
2023-05-16T10:48:38.185Z,46.54
2023-05-16T10:49:38.183Z,46.65
2023-05-16T10:50:38.309Z,46.77
2023-05-16T10:51:38.188Z,46.85
2023-05-16T10:52:38.161Z,46.87
2023-05-16T10:53:38.154Z,46.93
2023-05-16T10:54:38.236Z,47.00
2023-05-16T10:55:38.297Z,47.11
2023-05-16T10:56:38.305Z,47.19
2023-05-16T10:57:38.132Z,47.22
2023-05-16T10:58:38.125Z,47.41
2023-05-16T10:59:38.117Z,47.51
2023-05-16T11:00:38.303Z,47.32
2023-05-16T11:01:38.480Z,46.23
2023-05-16T11:02:38.178Z,45.99
2023-05-16T11:03:38.270Z,46.61
2023-05-16T11:04:38.109Z,46.70
2023-05-16T11:05:38.082Z,46.47
2023-05-16T11:06:38.300Z,46.36
2023-05-16T11:07:38.074Z,46.50
2023-05-16T11:08:38.073Z,46.55
2023-05-16T11:09:38.061Z,46.55
2023-05-16T11:10:38.270Z,46.69
2023-05-16T11:11:39.309Z,46.84
2023-05-16T11:12:38.083Z,46.92
2023-05-16T11:13:38.187Z,47.06
2023-05-16T11:14:38.132Z,47.25
2023-05-16T11:15:38.160Z,47.13
2023-05-16T11:16:38.398Z,46.79
2023-05-16T11:17:39.994Z,46.51
2023-05-16T11:18:38.332Z,46.35
2023-05-16T11:19:38.201Z,44.99
2023-05-16T11:20:41.416Z,45.36
2023-05-16T11:21:38.454Z,44.69
2023-05-16T11:22:41.441Z,44.82
2023-05-16T11:23:38.173Z,44.32
2023-05-16T11:24:38.211Z,43.99
2023-05-16T11:25:38.168Z,43.95
2023-05-16T11:26:38.422Z,44.10
2023-05-16T11:27:38.305Z,44.14
2023-05-16T11:28:38.137Z,44.26
2023-05-16T11:29:38.145Z,44.03
2023-05-16T11:30:38.125Z,43.95
2023-05-16T11:31:38.352Z,43.68
2023-05-16T11:32:38.400Z,43.69
2023-05-16T11:33:38.104Z,43.76
2023-05-16T11:34:38.118Z,44.08
2023-05-16T11:35:38.086Z,43.87
2023-05-16T11:36:38.095Z,43.68
2023-05-16T11:37:38.316Z,43.53
2023-05-16T11:38:38.077Z,43.86
2023-05-16T11:39:38.104Z,44.19
2023-05-16T11:40:38.062Z,44.35
2023-05-16T11:41:38.318Z,44.61
2023-05-16T11:42:38.125Z,44.28
2023-05-16T11:43:38.039Z,44.25
2023-05-16T11:44:38.316Z,44.60
2023-05-16T11:45:38.031Z,44.48
2023-05-16T11:46:39.009Z,44.36
2023-05-16T11:47:38.411Z,44.54
2023-05-16T11:48:38.122Z,44.93
2023-05-16T11:49:38.002Z,45.27
2023-05-16T11:50:37.996Z,44.63
2023-05-16T11:51:38.332Z,44.33
2023-05-16T11:52:38.342Z,44.42
2023-05-16T11:53:38.143Z,44.63
2023-05-16T11:54:38.705Z,44.62
2023-05-16T11:55:42.115Z,44.74
2023-05-16T11:56:38.221Z,44.80
2023-05-16T11:57:38.320Z,44.79
2023-05-16T11:58:38.293Z,44.83
2023-05-16T11:59:38.289Z,44.84
2023-05-16T12:00:38.291Z,44.87
2023-05-16T12:01:38.332Z,44.90
2023-05-16T12:02:38.465Z,45.01
2023-05-16T12:03:38.643Z,44.95
2023-05-16T12:04:38.493Z,44.87
2023-05-16T12:05:38.494Z,44.75
2023-05-16T12:06:38.821Z,44.68
2023-05-16T12:07:38.404Z,44.61
2023-05-16T12:08:38.826Z,44.59
2023-05-16T12:09:38.438Z,44.55
2023-05-16T12:10:38.449Z,44.52
2023-05-16T12:11:38.467Z,44.45
2023-05-16T12:12:38.828Z,44.44
2023-05-16T12:13:38.489Z,44.41
2023-05-16T12:14:38.589Z,44.41
2023-05-16T12:15:38.578Z,44.44
2023-05-16T12:16:38.676Z,44.50
2023-05-16T12:17:46.255Z,44.50
2023-05-16T12:18:41.224Z,44.67
2023-05-16T12:19:38.604Z,44.66
2023-05-16T12:20:38.601Z,44.68
2023-05-16T12:21:38.839Z,44.73
2023-05-16T12:22:39.283Z,44.89
2023-05-16T12:23:38.587Z,44.86
2023-05-16T12:24:38.561Z,44.93
2023-05-16T12:25:38.601Z,44.92
2023-05-16T12:26:38.756Z,44.94
2023-05-16T12:27:40.947Z,44.94
2023-05-16T12:28:38.776Z,44.98
2023-05-16T12:29:38.769Z,45.00
2023-05-16T12:30:38.956Z,45.00
2023-05-16T12:31:38.986Z,44.99
2023-05-16T12:32:38.937Z,44.94
2023-05-16T12:33:38.737Z,44.96
2023-05-16T12:34:38.743Z,44.99
2023-05-16T12:35:38.705Z,44.98
2023-05-16T12:36:38.873Z,45.02
2023-05-16T12:37:39.315Z,44.99
2023-05-16T12:38:38.744Z,45.03
2023-05-16T12:39:38.639Z,45.00
2023-05-16T12:40:38.629Z,45.01
2023-05-16T12:41:38.618Z,44.94
2023-05-16T12:42:38.838Z,45.00
2023-05-16T12:43:38.839Z,44.96
2023-05-16T12:44:41.799Z,45.00
2023-05-16T12:45:38.599Z,44.97
2023-05-16T12:46:38.809Z,44.92
2023-05-16T12:47:38.623Z,44.92
2023-05-16T12:48:38.846Z,44.90
2023-05-16T12:49:38.570Z,44.89
2023-05-16T12:50:38.558Z,44.88
2023-05-16T12:51:38.557Z,44.83
2023-05-16T12:52:38.542Z,44.88
2023-05-16T12:53:38.839Z,44.84
2023-05-16T12:54:41.742Z,44.89
2023-05-16T12:55:38.536Z,44.87
2023-05-16T12:56:38.527Z,44.86
2023-05-16T12:57:39.334Z,44.86